Airfield :
LOGIN :

Register | Disclaimer

   EN    FR    IT 

 










Legend :    VFR   Marginal VFR   IFR   Intensive IFR   Very Intensive IFR
Visi :
Ceiling :
>= 8 km
>= 3000ft
5 to 8 km
1000 to 3000 ft
1500m to 5 km
500 to 1000 ft
800 to 1500m
200 to 500 ft
< 800m
< 200 ft
Symbols :   Thunderstorms  Fog  Heavy snow  Heavy precipitations  Wind > 20 kt
SIGMETs :     Misc.  Thunderstorms  Icing  Turbulence  Mountain Waves  Volcanic Ashes






- Airport Elevation : 141 ft
- IATA code : TGD


LYPG - Podgorica - Montenegro

CURRENT METAR :
  • 211630Z 14013KT 110V170 CAVOK 25/18 Q1008 NOSIG

EXPIRED METARs :
  • 211600Z 14012KT 090V170 9999 FEW050 26/18 Q1008 NOSIG
  • 211530Z 13012KT 9999 FEW050 26/17 Q1008 NOSIG
  • 211500Z 13012KT 9999 FEW040 27/17 Q1009 NOSIG
  • 211430Z 12014KT 9999 FEW040 27/16 Q1009 NOSIG
  • 211400Z 11015KT 080V140 9999 FEW040 27/17 Q1009 NOSIG
  • 211330Z 11011KT 080V150 9999 FEW040 SCT050 BKN070 27/17 Q1009 NOSIG
  • 211300Z 13012KT 9999 FEW040 SCT050 BKN070 27/17 Q1009 NOSIG
  • 211230Z 13010KT 090V160 9999 FEW040 SCT050 28/17 Q1009 NOSIG

TAF TAF LYPG
Valid from the 21 at 12:00 until the 22 at 12:00 UTC


211100Z 2112/2212 16007KT 9999 SCT040 TX29/2113Z TN17/2204Z
TEMPO 2115/2206 16020G35KT 3000 TSRA SCT030CB SCT040



MET'MAP, your aeronautical weather chart ! - Copyright ORBIFLY December 2007 - Disclaimer

ORBIFLY MET'MAP TEAM :

Programming & Development : Alexandra Zaïnal
Original concept : Baudouin d'Aumeries
Technical & hardware support : Manuel Goepfert
Assistance : Marc-Olivier Méhu




SOURCES & CREDITS :

   NOAA